Accueil
METAR-TAF:

METAR-TAF

Aéroports :

Base aérienne de Büchel

Büchel, Allemagne

latitude: 50-10N, longitude: 007-04E, altitude: 478 m

Observation

Le bulletin a été fait il y a 40 minutes, à 03:20 UTC
Vent 4 kt de nord-ouest
Température 7°C
Humidité 93%
Pression 1026 hPa
Visibilité 10 km ou plus

METAR: ETSB 230320Z AUTO 32004KT 9999 // ////// 07/06 Q1026 ///

Heure: 06:00 (04:00 UTC)

Prévision

Le bulletin a été fait il y a 17 heures et 10 minutes, à 10:50 UTC
Prévision valable du 22 à 10 UTC au 22 à 17 UTC
Vent 8 kt de ouest/nord-ouest
Visibilité 10 km ou plus
Nuages épars à une hauteur de 3000 ft
Temporairement
du 22 à 10 UTC au 22 à 17 UTC
Vent 10 kt de nord-ouest avec des rafales jusqu'à 20 kt
Visibilité: 1050 m
Nuages fragmentés à une hauteur de 2000 ft

TAF: ETSB 221050Z 2210/2217 30008KT 9999 NSW SCT030 TEMPO 2210/2217 31010G20KT 9999 NSW BKN020 CANCEL 1050 BY ETGL

Observations et prévisions météorologiques de plus de 4000 aéroports (messages METAR et TAF).

Les stations disponibles sont représentées par des disques jaunes et rouges sur la carte.

Passer la souris dessus pour voir le nom de la station.

Cliquer dessus pour voir les observations et prévisions météorologiques.

Pour changer de carte: cliquez sur les boutons verts avec une croix noire pour zoomer, sur le bouton vert avec un tiret pour effectuer un zoom arrière, ou sur les flèches vertes pour les cartes adjacentes.


METAR-TAF: